Turnerville, Alabama
Current Conditions -  °F | °C
As of 11:56 AM on Monday 26 Jan 2015 (Local Time) from KMOB Reporting Station
Few Clouds Few Clouds  
Wind Chill: 54°   Ceiling: Unl
Heat Index: 54°   Visibility: 10mi
Dew Point: 36°   Wind: 10mph
Humidity: 51%   Direction: 310°NW
Pressure: 30.05"   Gusts: 21mph
Location:  30.9846°N, 88.1229°W
Report Text: KMOB 261756Z 31009G18KT 10SM FEW040 FEW200 12/02 A3005 RMK AO2 SLP174 T01220022 10128 20061 58007
Loading
Personal Weather Stations






























Interactive Weather Map New forecast layout! Learn more

10-Day Weather Forecast

Advertisements
Track Severe Weather on mobile